• Join FlightAware (Why Join?)
  • Login
  • US Flag 
12:12PM EDT


 

Airport Tracker/Info


-or-


 

Live Flight TrackerFlight Track Log ✈ SKW5633 ✈ 26-Apr-2013 ✈ KIAD - KMSY

Flight Track Log - Related Links

Times and Time Zones

All times are in EDT time to prevent confusion due to time zone crossing. See the SKW5633 flight status page for this flight to view local times or setup timezone preferences in your user account.

Time Position Orientation Groundspeed Altitude Reporting Facility
EDT Latitude Longitude Course Direction KTS MPH feet Rate Location/Type
10:09PM 38.9333 -77.5333 218° Southwest 190 219 2,000  Level Potomac TRACON
10:10PM 38.9000 -77.5833 229° Southwest 223 257 4,200 2,400 Climbing Potomac TRACON
10:11PM 38.7479 -77.8044 189° South  Level Estimated
10:11PM 38.8333 -77.5833 180° South 252 290 6,400  Level Potomac TRACON
10:12PM 38.6812 -77.9188 185° South  Level Estimated
10:12PM 38.7667 -77.5833 180° South 275 316 9,100  Level Potomac TRACON
10:13PM 38.6012 -77.8194 136° Southeast  Level FlightAware Approximate
10:14PM 38.5352 -77.9342 218° Southwest  Level Estimated
10:14PM 38.5592 -77.5775 179° South 327 376 13,200  Level Washington Center
10:15PM 38.4592 -77.5722 178° South 350 403 15,700 2,220 Climbing Washington Center
10:16PM 38.3669 -77.6122 199° South 349 402 17,700 1,620 Climbing Washington Center
10:17PM 38.3069 -77.7086 232° Southwest 335 386 19,000 1,620 Climbing Washington Center
10:18PM 38.2425 -77.8044 229° Southwest 345 397 21,000 1,860 Climbing Washington Center
10:19PM 38.1781 -77.9056 231° Southwest 358 412 22,700 1,740 Climbing Washington Center
10:20PM 38.1136 -78.0067 231° Southwest 371 427 24,400 1,200 Climbing Washington Center
10:21PM 38.0575 -78.0892 229° Southwest 377 434 25,200 780 Climbing Washington Center
10:22PM 37.9844 -78.2000 230° Southwest 377 434 26,000 960 Climbing Washington Center
10:23PM 37.9089 -78.3106 229° Southwest 395 455 27,200 1,200 Climbing Washington Center
10:24PM 37.8333 -78.4183 228° Southwest 406 467 28,400 1,320 Climbing Washington Center
10:25PM 37.7469 -78.5386 228° Southwest 417 480 29,800 1,260 Climbing Washington Center
10:26PM 37.6733 -78.6458 229° Southwest 422 486 31,000 1,260 Climbing Washington Center
10:27PM 37.5997 -78.7531 229° Southwest 422 486 32,400 1,380 Climbing Washington Center
10:28PM 37.5242 -78.8547 227° Southwest 416 479 33,800 780 Climbing Washington Center
10:29PM 37.4525 -78.9561 228° Southwest 408 470 34,000 60 Climbing Washington Center
10:30PM 37.3850 -79.0550 229° Southwest 408 470 34,000  Level Washington Center
10:31PM 37.3067 -79.1586 226° Southwest 408 470 34,000  Level Washington Center
10:32PM 37.2306 -79.2647 228° Southwest 413 475 34,000  Level Washington Center
10:33PM 37.1481 -79.3675 225° Southwest 413 475 34,000  Level Washington Center
10:34PM 37.0656 -79.4728 226° Southwest 418 481 34,000 300 Level Washington Center
10:35PM 36.9761 -79.5853 225° Southwest 423 487 34,700 900 Climbing Washington Center
10:36PM 36.8956 -79.6850 225° Southwest 423 487 35,900 1,140 Climbing Washington Center
10:37PM 36.8192 -79.7822 226° Southwest 416 479 37,100 780 Climbing Washington Center
10:39PM 36.6986 -79.9272 224° Southwest 388 447 38,000 300 Climbing Atlanta Center
10:40PM 36.6303 -80.0111 225° Southwest 388 447 38,000  Level Atlanta Center
10:41PM 36.5500 -80.1081 224° Southwest 388 447 38,000  Level Atlanta Center
10:42PM 36.4739 -80.2022 225° Southwest 388 447 38,000  Level Atlanta Center
10:43PM 36.3975 -80.2961 225° Southwest 393 452 38,000  Level Atlanta Center
10:44PM 36.3111 -80.4033 225° Southwest 393 452 38,000  Level Atlanta Center
10:45PM 36.2325 -80.4994 225° Southwest 393 452 38,000  Level Atlanta Center
10:46PM 36.1539 -80.5981 225° Southwest 398 458 38,000  Level Atlanta Center
10:47PM 36.0753 -80.6914 224° Southwest 398 458 38,000  Level Atlanta Center
10:48PM 35.9925 -80.7922 225° Southwest 403 464 38,000  Level Atlanta Center
10:49PM 35.9136 -80.8878 224° Southwest 408 470 38,000  Level Atlanta Center
10:50PM 35.8325 -80.9856 224° Southwest 408 470 38,000  Level Atlanta Center
10:51PM 35.7536 -81.0806 224° Southwest 408 470 38,000  Level Atlanta Center
10:52PM 35.6725 -81.1783 224° Southwest 408 470 38,000  Level Atlanta Center
10:53PM 35.5931 -81.2678 222° Southwest 415 478 38,000  Level Atlanta Center
10:54PM 35.4997 -81.3831 225° Southwest 425 489 38,000  Level Atlanta Center
10:55PM 35.4203 -81.4775 224° Southwest 420 483 38,000  Level Atlanta Center
10:56PM 35.3389 -81.5742 224° Southwest 420 483 38,000  Level Atlanta Center
10:57PM 35.2553 -81.6708 223° Southwest 420 483 38,000  Level Atlanta Center
10:58PM 35.1736 -81.7672 224° Southwest 420 483 38,000  Level Atlanta Center
10:59PM 35.0897 -81.8658 224° Southwest 420 483 38,000  Level Atlanta Center
11:00PM 35.0122 -81.9694 228° Southwest 420 483 38,000  Level Atlanta Center
11:01PM 34.9514 -82.0672 233° Southwest 420 483 38,000  Level Atlanta Center
11:02PM 34.8861 -82.1725 233° Southwest 414 476 38,000  Level Atlanta Center
11:03PM 34.8169 -82.2828 233° Southwest 407 468 38,000  Level Atlanta Center
11:04PM 34.7433 -82.4083 235° Southwest 414 476 38,000  Level Atlanta Center
11:05PM 34.6739 -82.5183 233° Southwest 414 476 38,000  Level Atlanta Center
11:06PM 34.6064 -82.6331 234° Southwest 414 476 38,000  Level Atlanta Center
11:07PM 34.5367 -82.7428 232° Southwest 414 476 38,000  Level Atlanta Center
11:08PM 34.4689 -82.8519 233° Southwest 414 476 38,000  Level Atlanta Center
11:09PM 34.4011 -82.9639 234° Southwest 414 476 38,000  Level Atlanta Center
11:10PM 34.3392 -83.0628 233° Southwest 414 476 38,000  Level Atlanta Center
11:11PM 34.2692 -83.1767 233° Southwest 414 476 38,000  Level Atlanta Center
11:12PM 34.2011 -83.2853 233° Southwest 414 476 38,000  Level Atlanta Center
11:13PM 34.1328 -83.3939 233° Southwest 414 476 38,000  Level Atlanta Center
11:14PM 34.0622 -83.5097 234° Southwest 414 476 38,000  Level Atlanta Center
11:15PM 33.9919 -83.6178 232° Southwest 419 482 38,000  Level Atlanta Center
11:16PM 33.9150 -83.7383 232° Southwest 413 475 38,000  Level Atlanta Center
11:17PM 33.8442 -83.8486 232° Southwest 418 481 38,000  Level Atlanta Center
11:18PM 33.7733 -83.9589 232° Southwest 418 481 38,000  Level Atlanta Center
11:19PM 33.7025 -84.0714 233° Southwest 418 481 38,000  Level Atlanta Center
11:20PM 33.6314 -84.1811 232° Southwest 423 487 38,000  Level Atlanta Center
11:21PM 33.5603 -84.2956 233° Southwest 423 487 38,000  Level Atlanta Center
11:22PM 33.4953 -84.3950 232° Southwest 423 487 38,000  Level Atlanta Center
11:23PM 33.4239 -84.5067 233° Southwest 423 487 38,000  Level Atlanta Center
11:24PM 33.3525 -84.6158 232° Southwest 430 495 38,000  Level Atlanta Center
11:25PM 33.2808 -84.7297 233° Southwest 430 495 38,000  Level Atlanta Center
11:26PM 33.2092 -84.8408 232° Southwest 430 495 38,000  Level Atlanta Center
11:27PM 33.1292 -84.9617 232° Southwest 430 495 38,000  Level Atlanta Center
11:28PM 33.0572 -85.0700 232° Southwest 436 502 38,000  Level Atlanta Center
11:29PM 32.9875 -85.1731 231° Southwest 425 489 38,000  Level Atlanta Center
11:30PM 32.9133 -85.2858 232° Southwest 425 489 38,000  Level Atlanta Center
11:31PM 32.8372 -85.3936 230° Southwest 425 489 38,000  Level Atlanta Center
11:32PM 32.7647 -85.5086 233° Southwest 430 495 38,000  Level Atlanta Center
11:33PM 32.6925 -85.6208 233° Southwest 435 501 38,000  Level Atlanta Center
11:34PM 32.6200 -85.7331 233° Southwest 435 501 38,000  Level Atlanta Center
11:35PM 32.5456 -85.8400 230° Southwest 435 501 38,000  Level Atlanta Center
11:36PM 32.4728 -85.9469 231° Southwest 452 520 38,000  Level Atlanta Center
11:37PM 32.3939 -86.0583 230° Southwest 452 520 38,000  Level Atlanta Center
11:38PM 32.3317 -86.1628 235° Southwest 433 498 38,000  Level Atlanta Center
11:39PM 32.2544 -86.2739 231° Southwest 433 498 38,000  Level Atlanta Center
11:40PM 32.1772 -86.3872 231° Southwest 439 505 38,000  Level Atlanta Center
11:41PM 32.1000 -86.5003 231° Southwest 427 491 38,000  Level Atlanta Center
11:42PM 32.0225 -86.6086 230° Southwest 427 491 38,000  Level Atlanta Center
11:43PM 31.9475 -86.7019 227° Southwest 435 501 38,000  Level Atlanta Center
11:44PM 31.8722 -86.8072 230° Southwest 435 501 38,000  Level Atlanta Center
11:45PM 31.7944 -86.9147 230° Southwest 435 501 38,000  Level Atlanta Center
11:46PM 31.7169 -87.0197 229° Southwest 430 495 38,000  Level Atlanta Center
11:47PM 31.6369 -87.1342 231° Southwest 420 483 38,000  Level Atlanta Center
11:49PM 31.4656 -87.3633 229° Southwest 422 486 38,000  Level Houston Center
11:50PM 31.3886 -87.4678 229° Southwest 424 488 38,000  Level Houston Center
11:51PM 31.3133 -87.5714 230° Southwest 418 481 38,000  Level Houston Center
11:52PM 31.2358 -87.6756 229° Southwest 423 487 38,000  Level Houston Center
11:53PM 31.1617 -87.7744 229° Southwest 422 486 38,000  Level Houston Center
11:54PM 31.0847 -87.8775 229° Southwest 422 486 38,000  Level Houston Center
11:55PM 31.0075 -87.9817 229° Southwest 424 488 38,000  Level Houston Center
11:56PM 30.9294 -88.0844 228° Southwest 425 489 38,000  Level Houston Center
11:57PM 30.8506 -88.1881 228° Southwest 428 493 38,000  Level Houston Center
11:58PM 30.7736 -88.2919 229° Southwest 425 489 38,000  Level Houston Center
11:59PM 30.6981 -88.4128 234° Southwest 417 480 38,000 -60 Level Houston Center
12:00AM 30.6464 -88.5325 243° Southwest 414 476 37,900 -1,380 Descending Houston Center
12:01AM 30.5939 -88.6525 243° Southwest 415 478 35,300 -2,640 Descending Houston Center
12:02AM 30.5414 -88.7714 243° Southwest 414 476 32,600 -2,760 Descending Houston Center
12:03AM 30.4861 -88.8936 242° Southwest 427 491 29,800 -2,640 Descending Houston Center
12:04AM 30.4361 -89.0086 243° Southwest 450 518 27,300 -2,700 Descending Houston Center
12:05AM 30.3831 -89.1364 244° Southwest 441 507 24,400 -3,240 Descending Houston Center
12:05AM 30.3619 -89.1997 249° West 447 514 23,000 -3,720 Descending Houston Center
12:06AM 30.3375 -89.2683 248° West 437 503 21,300 -3,300 Descending Houston Center
12:07AM 30.2936 -89.3839 246° West 416 479 18,400 -3,000 Descending Houston Center
12:07AM 30.2822 -89.4131 246° West 417 480 17,800 -2,760 Descending Houston Center
12:08AM 30.2500 -89.5014 247° West 400 460 15,600 -3,120 Descending Houston Center
12:08AM 30.2386 -89.5325 247° West 405 466 14,700 -2,820 Descending Houston Center
12:09AM 30.2081 -89.6142 247° West 384 442 12,800 -2,580 Descending Houston Center
12:09AM 30.1958 -89.6461 246° West 387 445 12,100 -1,920 Descending Houston Center
12:10AM 30.1678 -89.7194 246° West 354 407 10,900 -1,200 Descending Houston Center
12:10AM 30.1625 -89.7292 238° Southwest 363 418 10,900 -900 Level Houston Center
12:11AM 30.1333 -89.8100 247° West 287 330 10,000 -1,020 Descending Houston Center
12:11AM 30.1306 -89.8189 250° West 310 357 9,900 -1,020 Descending Houston Center
12:12AM 30.1131 -89.8950 255° West 272 313 9,000 -1,020 Descending Houston Center
12:12AM 30.1125 -89.9058 267° West 286 329 8,900 -1,020 Descending Houston Center
12:13AM 30.1036 -89.9917 263° West 282 325 8,000 -1,020 Descending Houston Center
12:13AM 30.1031 -89.9956 261° West 282 325 7,900 -1,020 Descending Houston Center
12:14AM 30.1022 -90.0758 269° West 266 306 7,000 -1,200 Descending Houston Center
12:14AM 30.1033 -90.0983 273° West 269 310 6,700 -1,020 Descending Houston Center
12:15AM 30.1047 -90.1597 272° West 259 298 6,000 -1,020 Descending Houston Center
12:15AM 30.1075 -90.1819 278° West 262 302 5,700 -900 Descending Houston Center
12:16AM 30.1094 -90.2414 272° West 258 297 5,100 -720 Descending Houston Center
12:17AM 30.1158 -90.3156 276° West 228 262 4,500 -840 Descending Houston Center
12:17AM 30.1186 -90.3375 278° West 238 274 4,100 -1,140 Descending Houston Center
12:18AM 30.1200 -90.3850 272° West 193 222 3,400 -1,020 Descending Houston Center
12:19AM 30.0767 -90.4083 205° Southwest 187 215 2,400 -1,080 Descending Houston Center
12:19AM 30.0697 -90.4097 190° South 198 228 2,100 -540 Descending Houston Center
12:20AM 30.0344 -90.3908 155° Southeast 162 186 1,900 -540 Descending Houston Center
12:21AM 30.0136 -90.3461 118° Southeast 153 176 1,100 -600 Descending Houston Center
12:22AM 30.0053 -90.3175 109° East 113 130 700 -540 Descending Houston Center